Aviation Digital Data Service (ADDS)

Output produced by METARs form (0044 UTC 20 April 2019)
found at http://www.aviationweather.gov/metar/data/
 
METAR text: RJTL 191120Z 07015G26KT 040V100 9999 FEW020 FEW030TCU BKN180 BKN/// 17/13 Q1009 RMK 1CU020 1TCU030 5AC180 A2981 TCU 20KM W MOV SE
Conditions at: RJTL (SHIMOFUSA (JMSDF, JP) observed 1120 UTC 19 April 2019
Temperature: 17.0°C (63°F)
Dewpoint: 13.0°C (55°F) [RH = 77%]
Pressure (altimeter): 29.79 inches Hg (1009.0 mb)
Winds: from the ENE (70 degrees) at 17 MPH (15 knots; 7.7 m/s)
gusting to 30 MPH (26 knots; 13.4 m/s)
Visibility: 6 or more miles (10+ km)
Ceiling: 18000 feet AGL
Clouds: few clouds at 2000 feet AGL
few clouds at 3000 feet AGL
broken clouds at 18000 feet AGL
Weather: no significant weather observed at this time

METAR text: RJTL 191026Z 05013KT 9999 FEW030 SCT060 BKN100 19/14 Q1008 RMK 1CU030 4SC060 5AC100 A2979
Conditions at: RJTL (SHIMOFUSA (JMSDF, JP) observed 1026 UTC 19 April 2019
Temperature: 19.0°C (66°F)
Dewpoint: 14.0°C (57°F) [RH = 73%]
Pressure (altimeter): 29.76 inches Hg (1008.0 mb)
Winds: from the NE (50 degrees) at 15 MPH (13 knots; 6.7 m/s)
Visibility: 6 or more miles (10+ km)
Ceiling: 10000 feet AGL
Clouds: few clouds at 3000 feet AGL
scattered clouds at 6000 feet AGL
broken clouds at 10000 feet AGL
Weather: no significant weather observed at this time